createdAt,value
2017-11-20T00:02:07.944Z,69.36
2017-11-20T00:04:39.563Z,69.32
2017-11-20T00:07:10.874Z,69.47
2017-11-20T00:09:42.181Z,69.52
2017-11-20T00:12:13.920Z,69.65
2017-11-20T00:14:45.219Z,69.59
2017-11-20T00:17:16.554Z,69.29
2017-11-20T00:19:48.163Z,69.15
2017-11-20T00:22:19.467Z,69.00
2017-11-20T00:24:51.073Z,68.95
2017-11-20T00:27:22.469Z,68.84
2017-11-20T00:29:53.956Z,68.65
2017-11-20T00:32:25.602Z,68.48
2017-11-20T00:34:56.943Z,68.47
2017-11-20T00:37:28.448Z,68.44
2017-11-20T00:40:00.050Z,68.35
2017-11-20T00:42:31.358Z,68.41
2017-11-20T00:45:04.306Z,68.43
2017-11-20T00:47:36.458Z,68.44
2017-11-20T00:50:07.781Z,68.48
2017-11-20T00:52:40.328Z,68.49
2017-11-20T00:55:11.695Z,68.26
2017-11-20T00:57:43.306Z,68.43
2017-11-20T01:00:14.805Z,68.72
2017-11-20T01:02:46.117Z,69.15
2017-11-20T01:05:17.970Z,69.40
2017-11-20T01:07:49.273Z,69.80
2017-11-20T01:10:20.761Z,70.10
2017-11-20T01:12:52.917Z,70.21
2017-11-20T01:15:24.296Z,70.27
2017-11-20T01:17:55.875Z,70.20
2017-11-20T01:20:27.285Z,70.19
2017-11-20T01:22:58.609Z,70.14
2017-11-20T01:25:30.270Z,70.10
2017-11-20T01:28:03.633Z,70.05
2017-11-20T01:30:34.928Z,69.93
2017-11-20T01:33:06.665Z,69.85
2017-11-20T01:35:38.479Z,69.86
2017-11-20T01:38:09.814Z,69.89
2017-11-20T01:40:41.440Z,69.84
2017-11-20T01:43:12.758Z,69.77
2017-11-20T01:45:44.068Z,69.73
2017-11-20T01:48:15.672Z,69.62
2017-11-20T01:50:46.972Z,69.58
2017-11-20T01:53:18.605Z,69.55
2017-11-20T01:55:50.409Z,69.74
2017-11-20T01:58:21.774Z,69.84
2017-11-20T02:00:53.426Z,69.97
2017-11-20T02:03:24.837Z,70.08
2017-11-20T02:05:56.145Z,70.25
2017-11-20T02:08:27.829Z,70.44
2017-11-20T02:10:59.128Z,70.64
2017-11-20T02:13:31.036Z,70.79
2017-11-20T02:16:02.804Z,70.89
2017-11-20T02:18:34.221Z,70.95
2017-11-20T02:21:05.958Z,71.28
2017-11-20T02:23:37.255Z,71.34
2017-11-20T02:26:08.735Z,71.51
2017-11-20T02:28:40.461Z,71.94
2017-11-20T02:31:11.797Z,72.06
2017-11-20T02:33:43.385Z,72.11
2017-11-20T02:36:14.727Z,72.17
2017-11-20T02:38:46.065Z,72.10
2017-11-20T02:41:17.724Z,72.19
2017-11-20T02:43:49.401Z,72.43
2017-11-20T02:46:20.767Z,72.58
2017-11-20T02:48:52.695Z,72.73
2017-11-20T02:51:24.283Z,72.82
2017-11-20T02:53:55.916Z,73.30
2017-11-20T02:56:27.869Z,73.32
2017-11-20T02:58:59.285Z,73.68
2017-11-20T03:01:33.452Z,73.88
2017-11-20T03:04:05.725Z,74.22
2017-11-20T03:06:37.321Z,74.51
2017-11-20T03:09:08.654Z,74.55
2017-11-20T03:11:39.985Z,74.38
2017-11-20T03:14:11.598Z,74.26
2017-11-20T03:16:42.893Z,74.28
2017-11-20T03:19:14.306Z,74.31
2017-11-20T03:21:45.936Z,74.38
2017-11-20T03:24:17.308Z,74.41
2017-11-20T03:26:49.785Z,74.45
2017-11-20T03:29:21.263Z,74.45
2017-11-20T03:31:52.582Z,74.50
2017-11-20T03:34:23.910Z,74.58
2017-11-20T03:36:55.936Z,74.62
2017-11-20T03:39:28.894Z,74.61
2017-11-20T03:42:00.744Z,74.81
2017-11-20T03:44:33.532Z,75.12
2017-11-20T03:47:05.878Z,75.27
2017-11-20T03:49:37.184Z,75.72
2017-11-20T03:52:08.813Z,75.64
2017-11-20T03:54:41.072Z,75.87
2017-11-20T03:57:12.669Z,76.02
2017-11-20T03:59:44.178Z,76.07
2017-11-20T04:02:15.484Z,76.11
2017-11-20T04:04:46.784Z,76.13
2017-11-20T04:07:18.242Z,76.22
2017-11-20T04:09:50.040Z,76.26
2017-11-20T04:12:21.372Z,76.31
2017-11-20T04:14:52.980Z,76.40
2017-11-20T04:17:24.270Z,76.48
2017-11-20T04:19:55.573Z,76.46
2017-11-20T04:22:27.224Z,76.42
2017-11-20T04:24:58.545Z,76.47
2017-11-20T04:27:31.029Z,76.65
2017-11-20T04:30:04.307Z,76.70
2017-11-20T04:32:36.061Z,76.94
2017-11-20T04:35:07.562Z,76.98
2017-11-20T04:37:43.969Z,77.08
2017-11-20T04:40:15.407Z,77.36
2017-11-20T04:42:47.024Z,77.35
2017-11-20T04:45:18.340Z,77.56
2017-11-20T04:47:49.647Z,77.49
2017-11-20T04:50:21.003Z,77.14
2017-11-20T04:52:52.329Z,77.06
2017-11-20T04:55:23.953Z,76.97
2017-11-20T04:57:56.656Z,77.03
2017-11-20T05:00:29.066Z,77.02
2017-11-20T05:03:00.375Z,77.01
2017-11-20T05:05:32.496Z,76.88
2017-11-20T05:08:05.312Z,77.05
2017-11-20T05:10:36.744Z,77.14
2017-11-20T05:13:08.354Z,77.24
2017-11-20T05:15:39.774Z,77.25
2017-11-20T05:18:11.485Z,77.32
2017-11-20T05:20:42.834Z,77.29
2017-11-20T05:23:14.116Z,77.30
2017-11-20T05:25:46.919Z,77.38
2017-11-20T05:28:18.220Z,77.31
2017-11-20T05:30:49.880Z,77.25
2017-11-20T05:33:21.185Z,77.15
2017-11-20T05:35:52.900Z,76.74
2017-11-20T05:38:24.512Z,76.73
2017-11-20T05:40:55.836Z,76.44
2017-11-20T05:43:35.196Z,76.51
2017-11-20T05:46:07.794Z,76.54
2017-11-20T05:48:39.231Z,76.53
2017-11-20T05:51:10.542Z,76.55
2017-11-20T05:53:42.165Z,76.47
2017-11-20T05:56:13.470Z,76.30
2017-11-20T05:58:44.785Z,76.30
2017-11-20T06:01:16.401Z,76.47
2017-11-20T06:03:47.709Z,76.65
2017-11-20T06:06:19.057Z,76.75
2017-11-20T06:08:52.051Z,76.81
2017-11-20T06:11:23.401Z,76.83
2017-11-20T06:13:55.044Z,76.90
2017-11-20T06:16:26.372Z,76.78
2017-11-20T06:18:58.319Z,76.87
2017-11-20T06:21:29.966Z,76.57
2017-11-20T06:24:02.509Z,76.53
2017-11-20T06:26:34.377Z,76.61
2017-11-20T06:29:06.049Z,76.45
2017-11-20T06:31:37.714Z,76.53
2017-11-20T06:34:09.062Z,76.65
2017-11-20T06:36:40.403Z,76.68
2017-11-20T06:39:12.033Z,76.67
2017-11-20T06:41:43.370Z,76.53
2017-11-20T06:44:14.715Z,76.40
2017-11-20T06:46:46.526Z,76.27
2017-11-20T06:49:17.900Z,76.21
2017-11-20T06:51:49.561Z,76.05
2017-11-20T06:54:20.965Z,76.07
2017-11-20T06:56:52.335Z,75.90
2017-11-20T06:59:24.072Z,76.06
2017-11-20T07:01:55.480Z,75.74
2017-11-20T07:04:26.913Z,75.52
2017-11-20T07:06:58.553Z,75.49
2017-11-20T07:09:30.172Z,75.76
2017-11-20T07:12:04.100Z,75.52
2017-11-20T07:14:38.263Z,75.20
2017-11-20T07:17:09.662Z,75.07
2017-11-20T07:19:41.297Z,75.00
2017-11-20T07:22:12.684Z,74.99
2017-11-20T07:24:44.056Z,74.86
2017-11-20T07:27:25.342Z,74.81
2017-11-20T07:30:39.497Z,74.78
2017-11-20T07:33:11.205Z,74.67
2017-11-20T07:35:42.790Z,74.43
2017-11-20T07:38:22.043Z,74.47
2017-11-20T07:41:07.013Z,74.57
2017-11-20T07:43:39.711Z,74.28
2017-11-20T07:46:11.468Z,74.30
2017-11-20T07:48:42.803Z,74.33
2017-11-20T07:51:14.157Z,74.56
2017-11-20T07:53:45.981Z,74.44
2017-11-20T07:56:17.378Z,74.35
2017-11-20T07:58:50.580Z,74.20
2017-11-20T08:01:22.241Z,74.37
2017-11-20T08:03:53.647Z,74.36
2017-11-20T08:06:25.011Z,74.27
2017-11-20T08:08:56.699Z,74.19
2017-11-20T08:11:28.470Z,73.82
2017-11-20T08:13:59.823Z,73.82
2017-11-20T08:16:31.483Z,73.83
2017-11-20T08:19:03.568Z,73.74
2017-11-20T08:21:35.342Z,73.64
2017-11-20T08:24:07.190Z,73.40
2017-11-20T08:26:38.556Z,73.18
2017-11-20T08:29:09.985Z,73.11
2017-11-20T08:31:43.536Z,73.25
2017-11-20T08:34:14.944Z,72.69
2017-11-20T08:36:46.649Z,72.21
2017-11-20T08:39:18.451Z,72.20
2017-11-20T08:41:51.183Z,72.04
2017-11-20T08:44:22.633Z,71.68
2017-11-20T08:46:54.588Z,71.45
2017-11-20T08:51:54.789Z,70.73
2017-11-20T08:54:26.451Z,70.53
2017-11-20T08:56:57.837Z,70.37
2017-11-20T08:59:30.128Z,70.49
2017-11-20T09:02:01.637Z,70.08
2017-11-20T09:04:33.906Z,69.90
2017-11-20T09:07:05.671Z,69.58
2017-11-20T09:09:37.232Z,69.26
2017-11-20T09:12:09.701Z,69.18
2017-11-20T09:14:41.078Z,69.11
2017-11-20T09:17:12.503Z,69.22
2017-11-20T09:19:44.354Z,69.15
2017-11-20T09:22:15.723Z,69.18
2017-11-20T09:24:47.627Z,69.10
2017-11-20T09:27:19.364Z,68.88
2017-11-20T09:29:50.757Z,68.74
2017-11-20T09:32:22.393Z,68.49
2017-11-20T09:34:53.821Z,68.46
2017-11-20T09:37:25.273Z,68.31
2017-11-20T09:39:56.987Z,68.56
2017-11-20T09:42:28.806Z,68.64
2017-11-20T09:45:00.158Z,68.33
2017-11-20T09:47:33.137Z,68.40
2017-11-20T09:50:05.672Z,68.37
2017-11-20T09:52:37.480Z,68.31
2017-11-20T09:55:08.970Z,68.20
2017-11-20T09:57:40.573Z,68.57
2017-11-20T10:00:12.536Z,68.54
2017-11-20T10:02:43.944Z,68.34
2017-11-20T10:05:16.151Z,68.08
2017-11-20T10:07:47.724Z,67.79
2017-11-20T10:10:19.429Z,67.85
2017-11-20T10:12:51.473Z,67.75
2017-11-20T10:15:22.971Z,67.24
2017-11-20T10:17:54.394Z,67.11
2017-11-20T10:20:26.066Z,67.05
2017-11-20T10:22:57.436Z,67.15
2017-11-20T10:25:29.682Z,67.11
2017-11-20T10:28:04.468Z,67.24
2017-11-20T10:30:35.878Z,67.74
2017-11-20T10:33:07.549Z,67.65
2017-11-20T10:35:39.078Z,67.37
2017-11-20T10:38:10.778Z,67.50
2017-11-20T10:40:42.382Z,67.63
2017-11-20T10:43:14.063Z,67.68
2017-11-20T10:45:45.924Z,67.73
2017-11-20T10:48:17.315Z,68.47
2017-11-20T10:50:48.750Z,68.77
2017-11-20T10:53:20.445Z,68.86
2017-11-20T10:55:51.819Z,68.83
2017-11-20T10:58:24.203Z,68.39
2017-11-20T11:00:55.865Z,68.30
2017-11-20T11:03:27.573Z,68.12
2017-11-20T11:05:59.616Z,68.36
2017-11-20T11:08:31.418Z,67.30
2017-11-20T11:11:03.244Z,67.84
2017-11-20T11:13:35.821Z,68.13
2017-11-20T11:16:07.390Z,67.92
2017-11-20T11:18:39.871Z,67.83
2017-11-20T11:21:11.612Z,67.68
2017-11-20T11:23:43.038Z,67.41
2017-11-20T11:26:14.735Z,67.42
2017-11-20T11:28:48.344Z,67.56
2017-11-20T11:31:19.849Z,67.70
2017-11-20T11:33:51.603Z,67.68
2017-11-20T11:36:23.136Z,67.96
2017-11-20T11:38:54.614Z,67.90
2017-11-20T11:41:26.377Z,68.08
2017-11-20T11:43:57.835Z,68.03
2017-11-20T11:46:32.188Z,68.16
2017-11-20T11:49:04.438Z,68.27
2017-11-20T11:51:36.637Z,68.55
2017-11-20T11:54:08.546Z,68.74
2017-11-20T11:56:39.941Z,69.21
2017-11-20T11:59:11.388Z,68.99
2017-11-20T12:01:43.049Z,69.22
2017-11-20T12:04:14.454Z,69.08
2017-11-20T12:06:46.085Z,68.85
2017-11-20T12:09:17.811Z,68.46
2017-11-20T12:11:49.527Z,68.40
2017-11-20T12:14:22.384Z,68.77
2017-11-20T12:16:54.045Z,68.60
2017-11-20T12:19:25.628Z,68.87
2017-11-20T12:21:57.460Z,68.45
2017-11-20T12:27:17.616Z,68.47
2017-11-20T12:29:49.730Z,68.18
2017-11-20T12:32:21.161Z,67.93
2017-11-20T12:34:53.065Z,67.68
2017-11-20T12:37:25.896Z,68.31
2017-11-20T12:39:58.113Z,68.29
2017-11-20T12:42:29.779Z,67.79
2017-11-20T12:45:14.211Z,67.34
2017-11-20T12:47:45.641Z,67.63
2017-11-20T12:50:17.580Z,68.05
2017-11-20T12:52:49.106Z,68.18
2017-11-20T12:55:20.772Z,68.19
2017-11-20T12:57:52.842Z,68.17
2017-11-20T13:00:24.365Z,68.02
2017-11-20T13:02:55.916Z,67.74
2017-11-20T13:05:28.418Z,68.04
2017-11-20T13:11:06.852Z,68.31
2017-11-20T13:13:40.164Z,67.92
2017-11-20T13:16:12.273Z,68.20
2017-11-20T13:18:44.479Z,68.17
2017-11-20T13:21:24.252Z,68.16
2017-11-20T13:23:58.025Z,68.31
2017-11-20T13:26:32.346Z,68.40
2017-11-20T13:29:10.872Z,68.40
2017-11-20T13:31:44.944Z,68.71
2017-11-20T13:34:16.816Z,68.84
2017-11-20T13:36:51.858Z,68.85
2017-11-20T13:42:39.792Z,68.07
2017-11-20T13:45:12.896Z,68.22
2017-11-20T13:47:48.331Z,68.29
2017-11-20T13:50:21.540Z,68.54
2017-11-20T13:52:53.597Z,68.78
2017-11-20T13:55:28.323Z,69.53
2017-11-20T13:58:04.161Z,69.82
2017-11-20T14:00:36.425Z,70.02
2017-11-20T14:03:12.291Z,70.21
2017-11-20T14:05:43.793Z,70.24
2017-11-20T14:08:19.064Z,70.42
2017-11-20T14:10:51.513Z,70.56
2017-11-20T14:13:24.118Z,70.71
2017-11-20T14:15:55.873Z,70.98
2017-11-20T14:18:28.567Z,70.91
2017-11-20T14:21:02.447Z,70.72
2017-11-20T14:23:36.836Z,70.73
2017-11-20T14:26:18.926Z,70.61
2017-11-20T14:28:51.438Z,70.53
2017-11-20T14:31:23.202Z,70.62
2017-11-20T14:33:54.699Z,70.66
2017-11-20T14:36:29.277Z,70.54
2017-11-20T14:39:01.494Z,70.73
2017-11-20T14:41:33.268Z,70.94
2017-11-20T14:44:15.954Z,70.92
2017-11-20T14:46:48.018Z,71.07
2017-11-20T14:49:28.018Z,71.28
2017-11-20T14:52:00.586Z,71.44
2017-11-20T15:00:34.814Z,72.30
2017-11-20T15:03:06.689Z,72.81
2017-11-20T15:08:41.964Z,73.31
2017-11-20T15:11:13.566Z,73.99
2017-11-20T15:16:39.732Z,74.97
2017-11-20T15:19:11.931Z,75.35
2017-11-20T15:21:45.489Z,75.59
2017-11-20T15:24:36.196Z,76.11
2017-11-20T15:27:07.795Z,76.31
2017-11-20T15:29:40.198Z,76.46
2017-11-20T15:32:12.618Z,77.15
2017-11-20T15:34:45.555Z,77.01
2017-11-20T15:40:28.117Z,77.05
2017-11-20T15:43:00.350Z,77.08
2017-11-20T15:45:33.857Z,76.78
2017-11-20T15:48:22.880Z,76.77
2017-11-20T15:51:04.559Z,76.78
2017-11-20T15:53:39.000Z,76.69
2017-11-20T15:59:17.045Z,77.10
2017-11-20T16:01:49.314Z,77.34
2017-11-20T16:04:24.742Z,77.90
2017-11-20T16:06:56.501Z,77.96
2017-11-20T16:09:27.859Z,77.78
2017-11-20T16:11:59.230Z,77.97
2017-11-20T16:14:30.756Z,78.07
2017-11-20T16:17:06.382Z,78.44
2017-11-20T16:19:38.066Z,78.50
2017-11-20T16:22:09.455Z,78.59
2017-11-20T16:27:29.079Z,78.59
2017-11-20T16:30:00.686Z,78.48
2017-11-20T16:32:32.054Z,78.41
2017-11-20T16:35:06.504Z,78.38
2017-11-20T16:37:37.956Z,78.28
2017-11-20T16:40:11.529Z,78.87
2017-11-20T16:42:44.607Z,78.86
2017-11-20T16:45:16.472Z,78.90
2017-11-20T16:47:47.930Z,79.24
2017-11-20T16:50:19.298Z,78.85
2017-11-20T16:52:51.233Z,78.82
2017-11-20T16:55:22.902Z,79.11
2017-11-20T16:58:10.806Z,79.41
2017-11-20T17:00:49.846Z,79.55
2017-11-20T17:03:21.364Z,79.81
2017-11-20T17:05:53.159Z,79.86
2017-11-20T17:08:24.537Z,79.93
2017-11-20T17:10:57.000Z,80.17
2017-11-20T17:13:28.696Z,80.28
2017-11-20T17:16:00.542Z,80.33
2017-11-20T17:18:32.124Z,80.47
2017-11-20T17:21:05.173Z,80.53
2017-11-20T17:23:36.517Z,80.67
2017-11-20T17:26:11.511Z,80.50
2017-11-20T17:28:43.689Z,80.69
2017-11-20T17:31:15.368Z,80.65
2017-11-20T17:33:48.531Z,80.51
2017-11-20T17:36:19.906Z,80.34
2017-11-20T17:38:51.942Z,80.38
2017-11-20T17:41:23.415Z,80.34
2017-11-20T17:43:55.286Z,80.35
2017-11-20T17:46:27.351Z,80.27
2017-11-20T17:48:59.290Z,80.06
2017-11-20T17:51:31.023Z,80.13
2017-11-20T17:54:03.869Z,80.09
2017-11-20T17:56:35.527Z,80.02
2017-11-20T17:59:07.039Z,80.01
2017-11-20T18:01:38.470Z,79.97
2017-11-20T18:04:10.427Z,80.14
2017-11-20T18:06:41.798Z,80.20
2017-11-20T18:09:13.159Z,80.20
2017-11-20T18:11:46.513Z,80.12
2017-11-20T18:14:17.978Z,80.00
2017-11-20T18:19:55.152Z,79.96
2017-11-20T18:22:35.004Z,80.04
2017-11-20T18:25:07.810Z,80.07
2017-11-20T18:27:40.047Z,80.05
2017-11-20T18:30:12.539Z,79.97
2017-11-20T18:32:44.369Z,80.04
2017-11-20T18:35:16.802Z,80.12
2017-11-20T18:37:48.512Z,80.11
2017-11-20T18:40:20.580Z,79.87
2017-11-20T18:42:54.089Z,79.89
2017-11-20T18:45:27.544Z,79.83
2017-11-20T18:47:58.917Z,79.94
2017-11-20T18:50:30.712Z,80.08
2017-11-20T18:53:05.293Z,80.25
2017-11-20T18:55:40.612Z,80.27
2017-11-20T18:58:12.404Z,80.44
2017-11-20T19:03:06.061Z,80.42
2017-11-20T19:05:48.201Z,80.48
2017-11-20T19:08:36.622Z,80.49
2017-11-20T19:11:11.424Z,80.58
2017-11-20T19:13:45.819Z,80.53
2017-11-20T19:16:18.493Z,80.60
2017-11-20T19:18:50.234Z,80.56
2017-11-20T19:21:22.792Z,80.56
2017-11-20T19:24:13.270Z,80.59
2017-11-20T19:26:56.762Z,80.67
2017-11-20T19:29:30.556Z,80.73
2017-11-20T19:32:09.021Z,80.75
2017-11-20T19:34:40.929Z,80.78
2017-11-20T19:37:16.955Z,80.83
2017-11-20T19:39:49.221Z,80.81
2017-11-20T19:42:21.540Z,80.74
2017-11-20T19:44:53.321Z,80.80
2017-11-20T19:47:25.743Z,80.84
2017-11-20T19:49:58.649Z,80.85
2017-11-20T19:52:30.422Z,80.77
2017-11-20T19:55:04.075Z,80.71
2017-11-20T19:57:35.477Z,80.81
2017-11-20T20:00:12.354Z,80.76
2017-11-20T20:02:47.656Z,80.79
2017-11-20T20:05:21.592Z,80.90
2017-11-20T20:07:53.461Z,80.94
2017-11-20T20:10:29.889Z,80.79
2017-11-20T20:13:03.594Z,80.62
2017-11-20T20:15:45.936Z,80.56
2017-11-20T20:18:20.770Z,80.52
2017-11-20T20:20:53.292Z,80.47
2017-11-20T20:26:03.020Z,80.47
2017-11-20T20:28:35.673Z,80.50
2017-11-20T20:34:17.358Z,80.27
2017-11-20T20:36:49.857Z,80.23
2017-11-20T20:39:23.349Z,80.18
2017-11-20T20:41:54.902Z,80.12
2017-11-20T20:44:27.040Z,79.96
2017-11-20T20:47:11.933Z,79.79
2017-11-20T20:49:47.242Z,79.57
2017-11-20T20:52:39.945Z,79.59
2017-11-20T20:55:14.812Z,79.48
2017-11-20T20:57:53.402Z,79.43
2017-11-20T21:00:26.706Z,79.42
2017-11-20T21:02:58.894Z,79.56
2017-11-20T21:05:34.688Z,79.52
2017-11-20T21:08:17.929Z,79.47
2017-11-20T21:10:53.610Z,79.38
2017-11-20T21:13:26.313Z,79.37
2017-11-20T21:15:59.651Z,79.25
2017-11-20T21:18:34.693Z,79.30
2017-11-20T21:21:08.142Z,79.40
2017-11-20T21:23:40.052Z,79.44
2017-11-20T21:26:17.947Z,79.58
2017-11-20T21:28:49.818Z,79.61
2017-11-20T21:31:31.202Z,79.71
2017-11-20T21:34:04.057Z,79.79
2017-11-20T21:36:35.996Z,79.85
2017-11-20T21:39:08.961Z,79.87
2017-11-20T21:41:41.114Z,79.76
2017-11-20T21:44:17.475Z,79.74
2017-11-20T21:46:48.857Z,79.60
2017-11-20T21:49:22.121Z,79.52
2017-11-20T21:51:54.789Z,79.47
2017-11-20T21:54:26.269Z,79.64
2017-11-20T21:56:57.661Z,79.72
2017-11-20T21:59:29.353Z,79.81
2017-11-20T22:02:00.719Z,80.10
2017-11-20T22:04:34.016Z,80.11
2017-11-20T22:07:06.184Z,80.23
2017-11-20T22:09:38.108Z,80.48
2017-11-20T22:12:18.589Z,80.53
2017-11-20T22:14:52.840Z,80.88
2017-11-20T22:17:24.868Z,81.09
2017-11-20T22:22:56.329Z,80.99
2017-11-20T22:25:28.259Z,80.88
2017-11-20T22:28:00.029Z,80.88
2017-11-20T22:30:34.424Z,80.84
2017-11-20T22:33:09.020Z,80.50
2017-11-20T22:35:41.535Z,79.76
2017-11-20T22:38:14.284Z,79.01
2017-11-20T22:40:46.103Z,78.45
2017-11-20T22:43:18.235Z,78.12
2017-11-20T22:45:49.884Z,77.79
2017-11-20T22:48:21.222Z,77.79
2017-11-20T22:50:52.548Z,77.89
2017-11-20T22:53:25.319Z,77.81
2017-11-20T22:55:56.779Z,77.83
2017-11-20T22:58:29.681Z,77.90
2017-11-20T23:01:01.909Z,78.00
2017-11-20T23:03:34.989Z,78.06
2017-11-20T23:06:11.143Z,78.10
2017-11-20T23:08:44.500Z,77.99
2017-11-20T23:11:15.954Z,77.69
2017-11-20T23:13:49.746Z,77.64
2017-11-20T23:16:21.300Z,77.59
2017-11-20T23:21:54.038Z,77.13
2017-11-20T23:24:27.076Z,76.94
2017-11-20T23:26:59.645Z,76.80
2017-11-20T23:29:30.977Z,76.76
2017-11-20T23:32:05.127Z,76.58
2017-11-20T23:34:36.521Z,76.58
2017-11-20T23:37:08.162Z,76.74
2017-11-20T23:39:39.536Z,76.93
2017-11-20T23:42:11.135Z,77.13
2017-11-20T23:44:42.467Z,77.29
2017-11-20T23:47:13.855Z,77.34
2017-11-20T23:49:46.732Z,77.50
2017-11-20T23:52:18.238Z,77.71
2017-11-20T23:54:50.642Z,77.77
2017-11-20T23:57:23.122Z,77.46
2017-11-20T23:59:54.429Z,77.42
